Time;durP1;ratioP1;P1;durP2;ratioP2;P2;SDS_P1;SDS_P2;PMS_P1;PMS_P2;Temp;Humidity;BMP_temperature;BMP_pressure;BME280_temperature;BME280_humidity;BME280_pressure;Samples;Min_cycle;Max_cycle;Signal;HPM_P1;HPM_P2
2022/03/14 00:00:24;;;;;;;15.13;8.82;;;6.90;46.60;;;;;;5069808;28;20040;-44
2022/03/14 00:02:52;;;;;;;11.52;8.25;;;6.90;47.00;;;;;;5069339;28;20026;-44
2022/03/14 00:05:18;;;;;;;10.27;8.35;;;6.90;47.00;;;;;;5051180;28;20032;-45
2022/03/14 00:07:47;;;;;;;12.57;7.88;;;6.90;47.20;;;;;;5068569;28;20067;-43
2022/03/14 00:10:15;;;;;;;10.25;7.70;;;6.90;47.50;;;;;;5052345;28;20425;-43
2022/03/14 00:12:48;;;;;;;11.00;7.53;;;6.80;47.70;;;;;;5068816;28;20036;-42
2022/03/14 00:15:17;;;;;;;12.63;8.65;;;6.90;47.90;;;;;;5069183;28;20361;-43
2022/03/14 00:17:45;;;;;;;11.93;7.93;;;6.80;48.10;;;;;;5069058;28;20036;-43
2022/03/14 00:20:15;;;;;;;12.17;8.67;;;6.80;48.10;;;;;;5069428;28;20040;-44
2022/03/14 00:22:44;;;;;;;12.32;8.38;;;6.80;47.90;;;;;;5050956;28;20351;-44
2022/03/14 00:25:10;;;;;;;12.33;8.47;;;6.80;47.80;;;;;;5085048;28;20036;-45
2022/03/14 00:27:46;;;;;;;10.25;8.32;;;6.70;47.90;;;;;;5084566;28;20028;-42
2022/03/14 00:30:18;;;;;;;12.90;8.50;;;6.70;47.90;;;;;;5068329;28;20028;-46
2022/03/14 00:32:44;;;;;;;10.75;7.57;;;6.70;48.10;;;;;;5068669;28;20028;-44
2022/03/14 00:35:11;;;;;;;10.77;8.70;;;6.70;48.30;;;;;;5069562;28;20627;-44
2022/03/14 00:37:48;;;;;;;11.88;8.90;;;6.70;48.00;;;;;;5067929;28;20029;-43
2022/03/14 00:40:16;;;;;;;13.57;8.35;;;6.70;48.10;;;;;;5068238;28;20076;-44
2022/03/14 00:42:41;;;;;;;12.10;8.52;;;6.70;48.20;;;;;;5047777;28;20060;-45
2022/03/14 00:45:08;;;;;;;13.48;7.72;;;6.60;48.40;;;;;;5063217;28;20430;-43
2022/03/14 00:47:35;;;;;;;12.05;7.57;;;6.60;48.30;;;;;;5069030;28;20064;-44
2022/03/14 00:50:02;;;;;;;10.85;8.02;;;6.60;48.00;;;;;;5069237;28;20104;-44
2022/03/14 00:52:29;;;;;;;13.10;8.55;;;6.60;48.10;;;;;;5068673;28;20036;-43
2022/03/14 00:54:55;;;;;;;11.35;8.13;;;6.60;48.10;;;;;;5069302;28;20040;-43
2022/03/14 00:57:21;;;;;;;12.32;8.13;;;6.60;48.00;;;;;;5068650;28;20043;-46
2022/03/14 00:59:48;;;;;;;10.85;8.13;;;6.60;47.80;;;;;;5068197;28;20448;-45
2022/03/14 01:02:14;;;;;;;12.15;8.18;;;6.70;47.70;;;;;;5068693;28;20036;-44
2022/03/14 01:04:41;;;;;;;11.32;8.32;;;6.70;47.30;;;;;;5068134;28;20032;-46
2022/03/14 01:07:07;;;;;;;11.90;9.27;;;6.60;47.40;;;;;;5068901;28;20043;-43
2022/03/14 01:09:34;;;;;;;12.93;8.60;;;6.70;47.10;;;;;;5067720;28;20036;-43
2022/03/14 01:12:01;;;;;;;11.48;8.52;;;6.70;47.20;;;;;;5068761;28;20059;-45
2022/03/14 01:14:29;;;;;;;10.93;7.85;;;6.80;46.70;;;;;;5067620;28;20044;-47
2022/03/14 01:16:57;;;;;;;10.65;8.35;;;6.80;46.80;;;;;;5068726;28;20075;-44
2022/03/14 01:19:22;;;;;;;11.63;7.55;;;6.90;46.40;;;;;;5067847;28;20039;-45
2022/03/14 01:21:50;;;;;;;12.77;8.13;;;6.90;46.30;;;;;;5067659;28;20055;-43
2022/03/14 01:24:18;;;;;;;11.52;8.05;;;6.90;46.30;;;;;;5068408;28;20101;-44
2022/03/14 01:26:46;;;;;;;10.25;7.40;;;6.90;46.60;;;;;;5068340;28;20028;-45
2022/03/14 01:29:15;;;;;;;9.80;7.20;;;6.90;46.30;;;;;;5068943;28;20028;-43
2022/03/14 01:31:44;;;;;;;12.30;8.07;;;7.00;46.40;;;;;;5069278;28;20035;-46
2022/03/14 01:34:14;;;;;;;11.48;8.05;;;7.00;46.50;;;;;;5068780;28;20037;-44
2022/03/14 01:36:40;;;;;;;11.18;8.40;;;7.10;46.10;;;;;;5069349;28;20031;-45
2022/03/14 01:39:06;;;;;;;10.60;7.88;;;7.10;46.10;;;;;;5069057;28;20337;-44
2022/03/14 01:41:32;;;;;;;14.30;8.90;;;7.10;46.30;;;;;;5084674;28;20035;-43
2022/03/14 01:44:01;;;;;;;16.02;7.93;;;7.10;46.30;;;;;;5068020;28;20137;-44
2022/03/14 01:46:28;;;;;;;9.27;7.47;;;7.20;46.40;;;;;;5068721;28;20017;-43
2022/03/14 01:48:56;;;;;;;10.13;8.25;;;7.20;46.60;;;;;;5068268;28;20039;-43
2022/03/14 01:51:30;;;;;;;11.40;8.50;;;7.20;46.70;;;;;;5069607;28;20031;-42
2022/03/14 01:53:55;;;;;;;12.35;9.10;;;7.20;46.90;;;;;;5071619;28;20112;-46
2022/03/14 01:56:23;;;;;;;11.98;8.50;;;7.20;47.10;;;;;;5071945;28;20139;-44
2022/03/14 01:58:52;;;;;;;9.80;7.10;;;7.20;46.90;;;;;;5071268;28;20055;-43
2022/03/14 02:01:23;;;;;;;10.63;7.70;;;7.20;47.00;;;;;;5071491;28;20037;-46
2022/03/14 02:03:50;;;;;;;9.98;7.80;;;7.20;47.00;;;;;;5072480;28;20028;-48
2022/03/14 02:06:18;;;;;;;18.55;9.35;;;7.20;46.70;;;;;;5072324;28;20024;-45
2022/03/14 02:08:46;;;;;;;9.95;7.18;;;7.20;46.50;;;;;;5072408;28;20039;-44
2022/03/14 02:11:13;;;;;;;12.02;8.27;;;7.20;46.40;;;;;;5071022;28;20453;-43
2022/03/14 02:13:40;;;;;;;10.35;7.82;;;7.30;46.50;;;;;;5071773;28;20033;-46
2022/03/14 02:16:07;;;;;;;8.65;7.63;;;7.30;46.70;;;;;;5071399;28;20054;-48
2022/03/14 02:18:33;;;;;;;11.88;8.13;;;7.20;46.70;;;;;;5072149;28;20690;-48
2022/03/14 02:21:01;;;;;;;11.50;7.97;;;7.30;46.50;;;;;;5072060;28;20127;-48
2022/03/14 02:23:28;;;;;;;10.75;8.30;;;7.20;46.60;;;;;;5071918;28;20115;-46
2022/03/14 02:25:55;;;;;;;27.85;8.93;;;7.30;46.40;;;;;;5070943;28;20024;-49
2022/03/14 02:28:22;;;;;;;11.32;7.90;;;7.30;46.50;;;;;;5070762;28;20461;-44
2022/03/14 02:30:54;;;;;;;13.85;8.95;;;7.30;46.50;;;;;;5070975;28;20027;-46
2022/03/14 02:33:24;;;;;;;13.48;8.07;;;7.30;46.80;;;;;;5071223;28;20158;-45
2022/03/14 02:35:52;;;;;;;12.38;8.55;;;7.30;47.20;;;;;;5070632;28;20028;-44
2022/03/14 02:38:19;;;;;;;11.38;8.32;;;7.30;47.40;;;;;;5070833;28;20181;-44
2022/03/14 02:40:47;;;;;;;10.98;7.50;;;7.30;47.60;;;;;;5071724;28;20028;-43
2022/03/14 02:43:20;;;;;;;10.02;8.18;;;7.30;47.30;;;;;;5071497;28;20391;-43
2022/03/14 02:45:48;;;;;;;13.48;8.43;;;7.30;47.00;;;;;;5057553;28;20062;-44
2022/03/14 02:48:16;;;;;;;11.32;8.55;;;7.30;47.30;;;;;;5071772;28;20024;-44
2022/03/14 02:50:53;;;;;;;9.25;6.90;;;7.30;47.30;;;;;;5071807;28;20026;-43
2022/03/14 02:53:24;;;;;;;12.50;8.07;;;7.30;47.30;;;;;;5071545;28;20020;-46
2022/03/14 02:55:52;;;;;;;9.70;7.82;;;7.30;47.30;;;;;;5071771;28;20029;-43
2022/03/14 02:58:19;;;;;;;11.43;8.60;;;7.30;47.30;;;;;;5071033;28;20029;-47
2022/03/14 03:00:46;;;;;;;11.00;8.32;;;7.20;47.60;;;;;;5070857;28;20029;-43
2022/03/14 03:03:12;;;;;;;13.50;8.68;;;7.20;47.70;;;;;;5087002;28;20107;-43
2022/03/14 03:05:43;;;;;;;14.77;8.05;;;7.20;47.70;;;;;;5070944;28;20150;-45
2022/03/14 03:08:10;;;;;;;10.18;7.97;;;7.30;47.70;;;;;;5071187;28;20034;-44
2022/03/14 03:10:38;;;;;;;13.70;9.02;;;7.20;48.20;;;;;;5070970;28;20035;-45
2022/03/14 03:13:06;;;;;;;11.80;8.45;;;7.20;48.50;;;;;;5070297;28;20033;-43
2022/03/14 03:15:35;;;;;;;12.15;8.93;;;7.20;48.50;;;;;;5069778;28;20044;-43
2022/03/14 03:18:06;;;;;;;11.70;7.97;;;7.20;48.50;;;;;;5070769;28;20491;-42
2022/03/14 03:20:33;;;;;;;11.48;8.57;;;7.10;48.50;;;;;;5071316;28;20036;-42
2022/03/14 03:23:01;;;;;;;11.55;8.20;;;7.20;48.50;;;;;;5069737;28;20053;-43
2022/03/14 03:25:28;;;;;;;12.00;8.52;;;7.20;48.40;;;;;;5069691;28;20056;-43
2022/03/14 03:28:00;;;;;;;11.40;8.88;;;7.20;48.00;;;;;;5069581;28;20093;-42
2022/03/14 03:30:29;;;;;;;11.80;8.68;;;7.20;48.20;;;;;;5070823;28;20027;-43
2022/03/14 03:32:55;;;;;;;11.00;8.10;;;7.20;48.00;;;;;;5069415;28;20035;-43
2022/03/14 03:35:28;;;;;;;9.50;7.82;;;7.20;48.20;;;;;;5070201;28;20028;-43
2022/03/14 03:38:00;;;;;;;10.35;8.10;;;7.20;48.50;;;;;;5070745;28;20421;-46
2022/03/14 03:40:28;;;;;;;12.48;8.15;;;7.20;48.50;;;;;;5070669;28;20086;-43
2022/03/14 03:42:56;;;;;;;12.15;9.07;;;7.20;48.60;;;;;;5070576;28;20111;-43
2022/03/14 03:45:28;;;;;;;12.70;8.50;;;7.20;48.80;;;;;;5070163;28;20055;-44
2022/03/14 03:47:54;;;;;;;10.32;8.15;;;7.10;48.90;;;;;;5069469;28;20059;-43
2022/03/14 03:50:25;;;;;;;10.95;8.93;;;7.20;49.30;;;;;;5070175;28;20064;-46
2022/03/14 03:52:51;;;;;;;12.13;9.15;;;7.20;49.50;;;;;;5070205;28;20036;-43
2022/03/14 03:55:18;;;;;;;10.38;8.77;;;7.20;49.60;;;;;;5071264;28;20040;-44
2022/03/14 03:57:45;;;;;;;12.23;9.35;;;7.20;49.20;;;;;;5073273;28;20035;-45
2022/03/14 04:00:12;;;;;;;13.43;9.45;;;7.20;49.80;;;;;;5074124;28;20048;-44
2022/03/14 04:02:42;;;;;;;10.82;8.23;;;7.20;50.10;;;;;;5054944;28;20028;-44
2022/03/14 04:05:18;;;;;;;12.70;8.85;;;7.20;50.60;;;;;;5055615;28;20045;-45
2022/03/14 04:07:56;;;;;;;12.18;8.75;;;7.10;50.80;;;;;;5072952;28;20048;-43
2022/03/14 04:10:21;;;;;;;11.65;9.10;;;7.10;50.20;;;;;;5072077;28;20036;-44
2022/03/14 04:12:49;;;;;;;11.82;9.15;;;7.10;51.10;;;;;;5072851;28;20063;-45
2022/03/14 04:15:17;;;;;;;10.95;8.57;;;7.00;51.50;;;;;;5071067;28;20064;-45
2022/03/14 04:17:44;;;;;;;11.30;9.07;;;7.00;52.50;;;;;;5069943;28;20042;-43
2022/03/14 04:20:11;;;;;;;13.25;8.98;;;7.00;53.30;;;;;;5070255;28;20048;-43
2022/03/14 04:22:38;;;;;;;13.15;9.13;;;6.90;54.40;;;;;;5069475;28;20032;-41
2022/03/14 04:25:07;;;;;;;14.63;9.25;;;6.90;55.90;;;;;;5085188;28;20024;-42
2022/03/14 04:27:33;;;;;;;12.48;9.15;;;6.80;56.70;;;;;;5068794;28;20064;-41
2022/03/14 04:30:00;;;;;;;17.80;9.10;;;6.70;57.80;;;;;;5068828;28;20031;-44
2022/03/14 04:32:27;;;;;;;12.82;9.13;;;6.70;58.50;;;;;;5069991;28;20016;-42
2022/03/14 04:34:56;;;;;;;12.73;9.27;;;6.60;59.00;;;;;;5068563;28;20028;-43
2022/03/14 04:37:23;;;;;;;13.88;10.98;;;6.50;60.70;;;;;;5068715;28;20411;-44
2022/03/14 04:39:50;;;;;;;15.13;9.50;;;6.50;61.90;;;;;;5069384;28;20056;-46
2022/03/14 04:42:21;;;;;;;14.23;10.43;;;6.40;61.90;;;;;;5069034;28;20032;-45
2022/03/14 04:44:49;;;;;;;12.68;10.27;;;6.40;62.60;;;;;;5067941;28;20531;-47
2022/03/14 04:47:17;;;;;;;13.00;10.55;;;6.40;62.70;;;;;;5068235;28;20054;-53
2022/03/14 04:49:46;;;;;;;12.63;9.77;;;6.40;63.10;;;;;;5069639;28;20037;-51
2022/03/14 04:52:12;;;;;;;12.65;10.25;;;6.30;64.10;;;;;;5068062;28;20063;-59
2022/03/14 04:54:39;;;;;;;13.57;10.77;;;6.20;65.10;;;;;;5069337;28;20040;-58
2022/03/14 04:57:05;;;;;;;12.10;9.57;;;6.20;66.10;;;;;;5069217;28;20040;-57
2022/03/14 04:59:32;;;;;;;13.35;10.30;;;6.20;66.60;;;;;;5069621;28;20070;-58
2022/03/14 05:02:00;;;;;;;14.93;11.70;;;6.20;67.30;;;;;;5069388;28;20485;-55
2022/03/14 05:04:28;;;;;;;14.27;11.45;;;6.20;68.10;;;;;;5068391;28;20048;-56
2022/03/14 05:06:56;;;;;;;16.33;14.50;;;6.10;68.80;;;;;;5068608;28;20778;-55
2022/03/14 05:09:21;;;;;;;17.83;13.85;;;6.10;69.40;;;;;;5068768;28;20104;-57
2022/03/14 05:11:47;;;;;;;16.88;11.80;;;6.00;70.70;;;;;;5069516;28;20108;-55
2022/03/14 05:14:14;;;;;;;15.65;11.57;;;6.00;70.80;;;;;;5069274;28;20069;-58
2022/03/14 05:16:43;;;;;;;13.73;11.35;;;6.00;70.60;;;;;;5069475;28;20050;-57
2022/03/14 05:19:09;;;;;;;14.90;11.45;;;6.00;70.90;;;;;;5069510;28;20038;-57
2022/03/14 05:21:34;;;;;;;16.17;11.68;;;5.90;71.60;;;;;;5068424;28;20745;-54
2022/03/14 05:24:01;;;;;;;13.77;11.02;;;5.90;71.60;;;;;;5068509;28;20060;-56
2022/03/14 05:26:27;;;;;;;14.35;11.52;;;5.90;71.80;;;;;;5069387;28;20027;-53
2022/03/14 05:28:54;;;;;;;19.10;11.57;;;5.90;71.80;;;;;;5073276;28;20107;-52
2022/03/14 05:31:20;;;;;;;12.75;11.23;;;5.90;72.30;;;;;;5073144;28;20334;-53
2022/03/14 05:33:46;;;;;;;13.88;10.95;;;5.80;72.00;;;;;;5071947;28;20066;-56
2022/03/14 05:36:14;;;;;;;15.80;11.80;;;5.80;72.20;;;;;;5072964;28;20415;-56
2022/03/14 05:38:41;;;;;;;13.80;12.10;;;5.80;72.40;;;;;;5072537;28;20025;-57
2022/03/14 05:41:15;;;;;;;14.82;12.43;;;5.90;73.00;;;;;;5072550;28;20089;-56
2022/03/14 05:43:41;;;;;;;15.77;11.90;;;5.90;73.30;;;;;;5071961;28;20033;-54
2022/03/14 05:46:07;;;;;;;15.93;11.77;;;5.90;73.90;;;;;;5069453;28;20380;-56
2022/03/14 05:48:35;;;;;;;16.75;12.50;;;5.90;73.80;;;;;;5071888;28;20032;-51
2022/03/14 05:51:03;;;;;;;15.90;11.27;;;5.90;74.10;;;;;;5070587;28;20086;-53
2022/03/14 05:53:32;;;;;;;15.73;11.48;;;5.90;74.10;;;;;;5054518;28;20043;-54
2022/03/14 05:56:00;;;;;;;14.30;11.88;;;5.80;73.80;;;;;;5071381;28;20028;-53
2022/03/14 05:58:27;;;;;;;17.77;11.88;;;5.70;73.80;;;;;;5070708;28;20051;-51
2022/03/14 06:00:54;;;;;;;15.73;12.05;;;5.70;74.50;;;;;;5071354;28;20028;-50
2022/03/14 06:03:21;;;;;;;16.27;12.20;;;5.70;74.60;;;;;;5071972;28;20066;-54
2022/03/14 06:05:49;;;;;;;14.05;11.40;;;5.70;74.90;;;;;;5069162;28;20497;-55
2022/03/14 06:08:18;;;;;;;17.38;13.05;;;5.60;75.00;;;;;;5072531;28;20482;-55
2022/03/14 06:10:45;;;;;;;16.77;13.10;;;5.60;75.00;;;;;;5071713;28;20024;-53
2022/03/14 06:13:13;;;;;;;14.90;11.65;;;5.60;74.70;;;;;;5071351;28;20028;-57
2022/03/14 06:15:39;;;;;;;17.35;12.30;;;5.50;74.80;;;;;;5054296;28;20033;-58
2022/03/14 06:18:06;;;;;;;15.93;12.80;;;5.50;74.80;;;;;;5071596;28;20138;-55
2022/03/14 06:20:35;;;;;;;19.58;12.32;;;5.40;75.30;;;;;;5072276;28;20029;-53
2022/03/14 06:23:02;;;;;;;15.82;12.88;;;5.50;75.50;;;;;;5069758;28;20116;-57
2022/03/14 06:25:31;;;;;;;13.73;11.68;;;5.50;75.60;;;;;;5069923;28;20021;-53
2022/03/14 06:27:57;;;;;;;14.35;11.82;;;5.50;75.70;;;;;;5071130;28;20099;-55
2022/03/14 06:30:24;;;;;;;14.02;11.80;;;5.50;75.40;;;;;;5068096;28;20034;-57
2022/03/14 06:32:52;;;;;;;16.60;13.15;;;5.50;75.10;;;;;;5067495;28;20473;-58
2022/03/14 06:35:22;;;;;;;16.35;12.45;;;5.50;74.90;;;;;;5069850;28;20032;-57
2022/03/14 06:37:50;;;;;;;15.70;12.80;;;5.50;75.30;;;;;;5070701;28;20037;-60
2022/03/14 06:40:18;;;;;;;15.40;12.38;;;5.50;75.40;;;;;;5053002;28;20481;-60
2022/03/14 06:42:52;;;;;;;16.33;13.10;;;5.50;75.90;;;;;;5068045;28;20021;-60
2022/03/14 06:45:25;;;;;;;16.58;11.95;;;5.40;76.30;;;;;;5068835;28;20427;-60
2022/03/14 06:47:54;;;;;;;17.38;13.50;;;5.40;76.70;;;;;;5070449;28;20016;-60
2022/03/14 06:50:23;;;;;;;18.27;14.00;;;5.40;76.90;;;;;;5064557;28;20033;-60
2022/03/14 06:52:51;;;;;;;17.17;13.45;;;5.40;77.00;;;;;;5069066;28;20139;-60
2022/03/14 06:55:20;;;;;;;17.80;13.63;;;5.40;77.00;;;;;;5070810;28;20552;-60
2022/03/14 06:57:47;;;;;;;14.73;12.63;;;5.50;77.40;;;;;;5069753;28;20082;-60
2022/03/14 07:00:16;;;;;;;14.95;12.23;;;5.40;77.50;;;;;;5070171;28;20028;-60
2022/03/14 07:02:45;;;;;;;18.20;14.95;;;5.40;77.90;;;;;;5069138;28;20039;-60
2022/03/14 07:05:13;;;;;;;18.08;14.00;;;5.40;78.20;;;;;;5068729;28;20124;-61
2022/03/14 07:07:40;;;;;;;16.02;13.30;;;5.50;78.60;;;;;;5068945;28;20048;-60
2022/03/14 07:10:09;;;;;;;15.63;13.75;;;5.50;79.00;;;;;;5059895;28;20042;-64
2022/03/14 07:12:48;;;;;;;17.20;13.82;;;5.60;79.30;;;;;;5067406;28;20021;-60
2022/03/14 07:15:25;;;;;;;15.82;13.55;;;5.60;79.80;;;;;;5068343;28;20154;-60
2022/03/14 07:17:53;;;;;;;18.50;14.25;;;5.60;80.20;;;;;;5069810;28;20389;-60
2022/03/14 07:20:20;;;;;;;23.00;14.90;;;5.70;80.50;;;;;;5047546;28;20035;-61
2022/03/14 07:22:57;;;;;;;18.48;15.65;;;5.70;80.60;;;;;;5067574;28;20444;-61
2022/03/14 07:25:50;;;;;;;19.33;14.55;;;5.70;81.20;;;;;;5069112;28;20111;-61
2022/03/14 07:28:18;;;;;;;17.45;14.98;;;5.70;81.80;;;;;;5070215;28;20021;-60
2022/03/14 07:30:47;;;;;;;18.02;14.63;;;5.70;82.10;;;;;;5069010;28;20454;-60
2022/03/14 07:33:13;;;;;;;17.85;15.15;;;5.80;82.70;;;;;;5056845;28;20151;-60
2022/03/14 07:35:42;;;;;;;17.25;15.35;;;5.80;83.00;;;;;;5063554;28;20032;-60
2022/03/14 07:38:10;;;;;;;20.27;16.23;;;5.80;83.20;;;;;;5068317;28;20059;-61
2022/03/14 07:40:38;;;;;;;20.40;15.82;;;5.80;84.00;;;;;;5069463;28;20044;-60
2022/03/14 07:43:06;;;;;;;19.77;15.88;;;5.90;84.30;;;;;;5068882;28;20412;-61
2022/03/14 07:45:34;;;;;;;20.17;15.68;;;5.90;84.70;;;;;;5065321;28;20141;-61
2022/03/14 07:48:01;;;;;;;22.40;18.35;;;5.90;84.80;;;;;;5069572;28;20066;-61
2022/03/14 07:50:28;;;;;;;18.95;16.15;;;6.00;85.10;;;;;;5068988;28;20029;-61
2022/03/14 07:52:57;;;;;;;20.55;16.60;;;6.00;85.40;;;;;;5070123;28;20090;-61
2022/03/14 07:55:24;;;;;;;17.40;15.60;;;6.10;85.60;;;;;;5067738;28;20040;-61
2022/03/14 07:57:52;;;;;;;22.38;17.10;;;6.20;85.80;;;;;;5067594;28;20405;-61
2022/03/14 08:00:20;;;;;;;18.38;16.38;;;6.30;86.00;;;;;;5068393;28;20036;-61
2022/03/14 08:02:47;;;;;;;20.67;18.48;;;6.40;86.30;;;;;;5068107;28;20047;-61
2022/03/14 08:05:16;;;;;;;19.17;16.35;;;6.40;86.40;;;;;;5067597;28;20052;-60
2022/03/14 08:07:49;;;;;;;19.27;16.42;;;6.50;86.50;;;;;;5067793;28;20461;-60
2022/03/14 08:10:26;;;;;;;20.58;16.92;;;6.60;86.60;;;;;;5064974;28;20123;-58
2022/03/14 08:12:55;;;;;;;18.05;16.13;;;6.80;86.80;;;;;;5067398;28;20025;-57
2022/03/14 08:15:26;;;;;;;19.20;17.08;;;6.90;86.70;;;;;;5051172;28;20443;-59
2022/03/14 08:17:58;;;;;;;20.08;17.80;;;6.90;86.80;;;;;;5067148;28;20041;-58
2022/03/14 08:20:27;;;;;;;21.20;17.52;;;7.00;86.80;;;;;;5067546;28;20032;-57
2022/03/14 08:22:54;;;;;;;21.63;16.52;;;7.10;86.90;;;;;;5068717;28;20067;-58
2022/03/14 08:25:24;;;;;;;18.08;15.52;;;7.10;86.60;;;;;;5062995;28;20052;-56
2022/03/14 08:27:50;;;;;;;21.33;17.25;;;7.20;86.50;;;;;;5066819;28;20559;-59
2022/03/14 08:30:20;;;;;;;18.98;16.15;;;7.20;86.60;;;;;;5064626;28;20032;-57
2022/03/14 08:32:45;;;;;;;18.48;16.48;;;7.20;86.50;;;;;;5051029;28;20492;-59
2022/03/14 08:35:13;;;;;;;20.38;16.33;;;7.20;86.70;;;;;;5067955;28;20059;-60
2022/03/14 08:37:41;;;;;;;18.92;16.13;;;7.20;86.90;;;;;;5068538;28;20055;-60
2022/03/14 08:40:09;;;;;;;19.05;17.08;;;7.20;87.00;;;;;;5050213;28;20045;-58
2022/03/14 08:42:38;;;;;;;19.52;17.48;;;7.20;87.20;;;;;;5067127;28;20049;-58
2022/03/14 08:45:05;;;;;;;18.40;16.33;;;7.30;87.40;;;;;;5067092;28;20056;-61
2022/03/14 08:47:33;;;;;;;18.63;16.48;;;7.30;87.60;;;;;;5065387;28;20578;-61
2022/03/14 08:50:02;;;;;;;20.08;18.00;;;7.40;87.70;;;;;;5050310;28;20035;-61
2022/03/14 08:52:31;;;;;;;18.83;16.92;;;7.40;87.70;;;;;;5066585;28;20147;-61
2022/03/14 08:55:00;;;;;;;20.90;17.90;;;7.40;87.90;;;;;;5067796;28;20024;-61
2022/03/14 08:57:26;;;;;;;22.88;16.98;;;7.40;87.90;;;;;;5066594;28;20916;-61
2022/03/14 08:59:54;;;;;;;19.75;15.88;;;7.50;88.10;;;;;;5067572;28;20107;-61
2022/03/14 09:02:22;;;;;;;18.98;16.38;;;7.60;88.10;;;;;;5071957;28;20036;-61
2022/03/14 09:04:51;;;;;;;18.23;15.75;;;7.60;88.20;;;;;;5070049;28;20020;-61
2022/03/14 09:07:31;;;;;;;17.25;15.30;;;7.70;88.40;;;;;;5070423;28;20070;-62
2022/03/14 09:10:03;;;;;;;20.13;16.38;;;7.80;88.50;;;;;;5071781;28;20017;-62
2022/03/14 09:12:32;;;;;;;18.10;16.15;;;7.90;88.40;;;;;;5070968;28;20428;-62
2022/03/14 09:15:04;;;;;;;19.95;16.90;;;7.90;88.40;;;;;;5054323;28;20033;-62
2022/03/14 09:17:44;;;;;;;18.48;16.55;;;7.90;88.40;;;;;;5071849;28;20032;-62
2022/03/14 09:20:15;;;;;;;18.55;16.55;;;7.90;88.40;;;;;;5071382;28;20028;-62
2022/03/14 09:22:45;;;;;;;18.13;16.13;;;7.90;88.50;;;;;;5072333;28;20090;-61
2022/03/14 09:25:13;;;;;;;19.58;16.42;;;7.90;88.50;;;;;;5070532;28;20488;-61
2022/03/14 09:27:40;;;;;;;20.70;16.90;;;7.90;88.60;;;;;;5071525;28;20042;-62
2022/03/14 09:30:10;;;;;;;20.33;16.92;;;7.90;88.60;;;;;;5070011;28;20032;-62
2022/03/14 09:32:37;;;;;;;20.10;17.73;;;7.90;88.80;;;;;;5067053;28;20090;-61
2022/03/14 09:35:06;;;;;;;19.20;17.13;;;7.90;88.90;;;;;;5070722;28;20045;-62
2022/03/14 09:37:32;;;;;;;17.60;14.98;;;7.90;89.10;;;;;;5052613;28;20052;-62
2022/03/14 09:39:58;;;;;;;18.83;16.70;;;7.90;89.30;;;;;;5071726;28;20085;-62
2022/03/14 09:42:25;;;;;;;21.98;19.00;;;7.90;89.50;;;;;;5070126;28;20120;-62
2022/03/14 09:44:54;;;;;;;18.50;16.45;;;8.00;89.50;;;;;;5071092;28;20098;-61
2022/03/14 09:47:26;;;;;;;19.60;16.63;;;8.10;89.70;;;;;;5053898;28;20021;-62
2022/03/14 09:49:57;;;;;;;20.50;16.70;;;8.10;89.70;;;;;;5070998;28;20029;-62
2022/03/14 09:52:27;;;;;;;19.13;15.98;;;8.20;89.80;;;;;;5070811;28;20021;-62
2022/03/14 09:54:54;;;;;;;19.50;15.48;;;8.30;89.90;;;;;;5071070;28;20117;-62
2022/03/14 09:57:20;;;;;;;17.92;15.23;;;8.40;90.00;;;;;;5053829;28;20040;-62
2022/03/14 09:59:46;;;;;;;19.38;15.68;;;8.50;90.10;;;;;;5072346;28;20028;-62
2022/03/14 10:02:14;;;;;;;19.58;15.73;;;8.50;90.00;;;;;;5069074;28;20365;-62
2022/03/14 10:04:39;;;;;;;17.75;15.63;;;8.60;90.10;;;;;;5071113;28;20021;-62
2022/03/14 10:07:09;;;;;;;15.57;13.90;;;8.70;90.10;;;;;;5069992;28;20025;-62
2022/03/14 10:09:39;;;;;;;17.75;15.85;;;8.80;90.10;;;;;;5071252;28;20043;-62
2022/03/14 10:12:06;;;;;;;20.58;15.63;;;8.90;90.00;;;;;;5069245;28;20123;-62
2022/03/14 10:14:36;;;;;;;16.90;14.55;;;8.90;89.90;;;;;;5070822;28;20103;-62
2022/03/14 10:17:02;;;;;;;16.05;14.20;;;8.90;89.90;;;;;;5068483;28;20064;-62
2022/03/14 10:19:34;;;;;;;15.77;14.05;;;9.00;90.00;;;;;;5070079;28;20056;-62
2022/03/14 10:22:44;;;;;;;18.35;14.88;;;9.10;89.90;;;;;;5070380;28;20025;-60
2022/03/14 10:25:13;;;;;;;;;;;9.20;89.80;;;;;;5069213;28;20028;-57
2022/03/14 10:27:47;;;;;;;17.15;13.80;;;9.20;89.80;;;;;;5069885;28;20002;-56
2022/03/14 10:30:35;;;;;;;15.82;14.13;;;9.30;89.80;;;;;;5069674;28;20032;-50
2022/03/14 10:33:10;;;;;;;15.27;12.77;;;9.40;89.90;;;;;;5070626;28;20013;-52
2022/03/14 10:35:42;;;;;;;13.10;11.23;;;9.40;89.80;;;;;;5070975;28;20065;-61
2022/03/14 10:38:11;;;;;;;13.60;12.13;;;9.50;89.80;;;;;;5068957;28;20116;-60
2022/03/14 10:40:46;;;;;;;13.25;11.85;;;9.70;89.80;;;;;;5052375;28;20028;-60
2022/03/14 10:43:25;;;;;;;13.40;12.00;;;9.70;89.80;;;;;;5065075;28;20484;-59
2022/03/14 10:45:52;;;;;;;;;;;9.80;89.60;;;;;;5070425;28;20052;-57
2022/03/14 10:48:32;;;;;;;12.63;11.13;;;9.80;89.60;;;;;;5063599;28;19919;-55
2022/03/14 10:51:23;;;;;;;14.10;11.23;;;9.70;89.50;;;;;;5066628;28;20032;-55
2022/03/14 10:53:51;;;;;;;11.93;10.68;;;9.70;89.50;;;;;;5069104;28;20028;-51
2022/03/14 10:56:27;;;;;;;16.45;14.50;;;9.60;89.50;;;;;;5070470;28;20067;-54
2022/03/14 10:58:56;;;;;;;16.45;14.40;;;9.60;89.40;;;;;;5068360;28;20064;-56
2022/03/14 11:01:26;;;;;;;13.57;12.00;;;9.50;89.50;;;;;;5068951;28;20800;-58
2022/03/14 11:03:58;;;;;;;13.20;11.82;;;9.50;89.50;;;;;;5068553;28;20039;-59
2022/03/14 11:06:27;;;;;;;12.95;11.65;;;9.50;89.70;;;;;;5067701;28;20382;-58
2022/03/14 11:08:53;;;;;;;14.20;12.70;;;9.50;89.90;;;;;;5069485;28;20048;-59
2022/03/14 11:11:23;;;;;;;14.77;12.77;;;9.50;89.90;;;;;;5069135;28;20429;-61
2022/03/14 11:13:50;;;;;;;14.52;13.02;;;9.50;90.00;;;;;;5067853;28;20587;-62
2022/03/14 11:16:20;;;;;;;13.82;12.43;;;9.50;90.10;;;;;;5069710;28;20551;-61
2022/03/14 11:18:48;;;;;;;;;;;9.50;90.00;;;;;;5068894;28;20048;-61
2022/03/14 11:21:16;;;;;;;14.38;12.98;;;9.50;90.10;;;;;;5069424;28;19942;-62
2022/03/14 11:23:46;;;;;;;15.07;13.48;;;9.50;90.00;;;;;;5068006;28;20051;-62
2022/03/14 11:26:19;;;;;;;15.52;13.88;;;9.50;90.10;;;;;;5067942;28;20446;-62
2022/03/14 11:28:49;;;;;;;15.02;13.50;;;9.50;90.20;;;;;;5068873;28;20025;-62
2022/03/14 11:31:21;;;;;;;16.67;15.00;;;9.50;90.20;;;;;;5067223;28;20458;-62
2022/03/14 11:33:49;;;;;;;16.10;14.40;;;9.50;90.30;;;;;;5068784;28;20091;-62
2022/03/14 11:36:19;;;;;;;15.02;13.52;;;9.50;90.30;;;;;;5068516;28;20100;-62
2022/03/14 11:38:44;;;;;;;17.17;15.15;;;9.50;90.40;;;;;;5069050;28;20457;-62
2022/03/14 11:41:21;;;;;;;15.25;13.70;;;9.60;90.50;;;;;;5068436;28;20043;-61
2022/03/14 11:43:48;;;;;;;15.30;13.70;;;9.60;90.40;;;;;;5068484;28;20115;-62
2022/03/14 11:46:17;;;;;;;16.27;14.68;;;9.70;90.40;;;;;;5068150;28;20032;-61
2022/03/14 11:48:44;;;;;;;16.63;14.85;;;9.70;90.30;;;;;;5069218;28;20086;-60
2022/03/14 11:51:11;;;;;;;14.95;12.95;;;9.70;90.30;;;;;;5051553;28;20039;-60
2022/03/14 11:53:50;;;;;;;14.02;12.52;;;9.70;90.40;;;;;;5068152;28;20340;-60
2022/03/14 11:56:17;;;;;;;13.82;12.25;;;9.80;90.30;;;;;;5069025;28;20376;-59
2022/03/14 11:59:00;;;;;;;15.65;13.88;;;9.80;90.30;;;;;;5065385;28;20050;-60
2022/03/14 12:01:32;;;;;;;14.55;13.07;;;9.80;90.30;;;;;;5061690;28;20137;-61
2022/03/14 12:04:00;;;;;;;15.38;13.55;;;9.80;90.20;;;;;;5068193;28;20107;-61
2022/03/14 12:06:49;;;;;;;14.32;12.82;;;9.80;90.20;;;;;;5067612;28;20047;-61
2022/03/14 12:09:24;;;;;;;;;;;9.90;90.30;;;;;;5068986;28;20032;-62
2022/03/14 12:12:09;;;;;;;14.13;12.25;;;9.90;90.10;;;;;;5067404;28;20341;-61
2022/03/14 12:14:47;;;;;;;14.38;12.95;;;9.80;90.10;;;;;;5067394;28;20070;-62
2022/03/14 12:17:16;;;;;;;14.82;13.32;;;9.80;90.10;;;;;;5066453;28;20032;-62
2022/03/14 12:20:11;;;;;;;14.05;12.55;;;9.80;90.10;;;;;;5068686;28;20064;-62
2022/03/14 12:22:40;;;;;;;14.70;13.23;;;9.70;90.10;;;;;;5069490;28;20087;-62
2022/03/14 12:25:11;;;;;;;14.75;13.23;;;9.60;90.10;;;;;;5067568;28;20049;-62
2022/03/14 12:27:49;;;;;;;15.00;13.57;;;9.70;90.20;;;;;;5068965;28;20028;-62
2022/03/14 12:30:20;;;;;;;15.27;13.88;;;9.60;90.30;;;;;;5067963;28;20615;-62
2022/03/14 12:33:12;;;;;;;14.90;13.07;;;9.70;90.30;;;;;;5068709;28;20056;-62
2022/03/14 12:35:39;;;;;;;15.25;13.75;;;9.70;90.50;;;;;;5067665;28;20353;-62
2022/03/14 12:38:24;;;;;;;17.48;15.27;;;9.80;90.40;;;;;;5065128;28;20441;-62
2022/03/14 12:40:56;;;;;;;16.23;14.55;;;9.80;90.40;;;;;;5068365;28;20461;-62
2022/03/14 12:43:30;;;;;;;16.33;14.63;;;9.90;90.40;;;;;;5067112;28;20443;-62
2022/03/14 12:46:06;;;;;;;16.77;15.07;;;9.90;90.50;;;;;;5067941;28;20071;-62
2022/03/14 12:48:34;;;;;;;16.40;14.70;;;9.90;90.60;;;;;;5068597;28;20029;-62
2022/03/14 12:51:19;;;;;;;15.87;14.10;;;10.00;90.40;;;;;;5067306;28;20350;-63
2022/03/14 12:53:53;;;;;;;14.00;12.55;;;10.00;90.40;;;;;;5068504;28;20328;-62